Boyarka, Ukraine
Current Conditions -  °F | °C
As of 7:00 PM on Sunday 23 Nov 2014 (Local Time) from UKKK Reporting Station
Moderate Snow Moderate Snow  
Wind Chill: 30°   Ceiling: 300
Heat Index: 30°   Visibility: 0.75mi
Dew Point: 28°   Wind: 2mph
Humidity: 93%   Direction: NA
Pressure: 30.45"   Gusts: NA
Location:  50.32°N, 30.32°E
Report Text: UKKK 231600Z VRB01MPS 1200 R08/P2000D SN BR BKN003 OVC012 M01/M02 Q1031 08590340 TEMPO 1000 SN BR OVC002
Loading
Personal Weather Stations






























Interactive Weather Map New forecast layout! Learn more

10-Day Weather Forecast

Advertisements
Track Severe Weather on mobile